Time;durP1;ratioP1;P1;durP2;ratioP2;P2;SDS_P1;SDS_P2;PMS_P1;PMS_P2;Temp;Humidity;BMP_temperature;BMP_pressure;BME280_temperature;BME280_humidity;BME280_pressure;Samples;Min_cycle;Max_cycle;Signal;HPM_P1;HPM_P2
2022/02/23 00:00:19;;;;;;;11.55;5.45;;;23.10;40.40;;;;;;6140536;28;80491;-65
2022/02/23 00:03:19;;;;;;;10.38;5.05;;;23.10;40.40;;;;;;6117974;28;80988;-65
2022/02/23 00:06:20;;;;;;;9.88;5.15;;;23.00;40.60;;;;;;6132191;28;80566;-65
2022/02/23 00:09:20;;;;;;;11.80;6.03;;;23.00;40.40;;;;;;6141468;28;85645;-64
2022/02/23 00:12:21;;;;;;;10.70;5.30;;;23.00;40.20;;;;;;6113972;28;80527;-65
2022/02/23 00:15:21;;;;;;;12.02;5.53;;;23.00;40.20;;;;;;6129724;28;80782;-65
2022/02/23 00:18:22;;;;;;;10.50;4.90;;;23.00;40.30;;;;;;6124759;28;81793;-66
2022/02/23 00:21:22;;;;;;;10.85;4.68;;;23.00;40.20;;;;;;6125187;28;80366;-67
2022/02/23 00:24:23;;;;;;;7.38;4.47;;;23.00;40.20;;;;;;6123865;28;81510;-66
2022/02/23 00:27:23;;;;;;;12.00;5.20;;;23.00;39.90;;;;;;6141369;28;80529;-66
2022/02/23 00:30:24;;;;;;;10.07;5.40;;;22.90;39.70;;;;;;6145528;28;80756;-66
2022/02/23 00:33:24;;;;;;;10.75;5.03;;;22.90;39.50;;;;;;6137007;28;80166;-66
2022/02/23 00:36:25;;;;;;;10.18;4.93;;;22.90;40.20;;;;;;6128975;28;80859;-66
2022/02/23 00:39:26;;;;;;;8.35;4.03;;;22.90;39.50;;;;;;6126830;28;80727;-66
2022/02/23 00:42:26;;;;;;;12.40;5.63;;;22.90;39.40;;;;;;6146152;28;80361;-66
2022/02/23 00:45:27;;;;;;;10.60;4.72;;;22.90;39.40;;;;;;6148383;28;80171;-66
2022/02/23 00:48:28;;;;;;;11.07;4.90;;;22.80;39.20;;;;;;6155076;28;80654;-66
2022/02/23 00:51:28;;;;;;;9.10;4.68;;;22.80;39.10;;;;;;6132897;28;80668;-66
2022/02/23 00:54:29;;;;;;;8.52;4.78;;;22.80;39.10;;;;;;6155264;28;80871;-66
2022/02/23 00:57:29;;;;;;;10.27;4.30;;;22.80;38.90;;;;;;6154463;28;80382;-66
2022/02/23 01:00:30;;;;;;;10.85;4.45;;;22.80;38.90;;;;;;6154294;28;80436;-66
2022/02/23 01:03:30;;;;;;;11.98;4.20;;;22.80;38.80;;;;;;6151529;28;86870;-66
2022/02/23 01:06:31;;;;;;;9.65;4.03;;;22.80;38.80;;;;;;6143586;28;80330;-66
2022/02/23 01:09:31;;;;;;;8.93;4.05;;;22.90;38.80;;;;;;6155511;28;80996;-66
2022/02/23 01:12:32;;;;;;;11.13;4.03;;;22.80;38.70;;;;;;6146322;28;81444;-66
2022/02/23 01:15:32;;;;;;;9.02;3.42;;;22.80;38.80;;;;;;6145228;28;80027;-66
2022/02/23 01:18:33;;;;;;;10.45;4.25;;;22.80;38.90;;;;;;6131401;28;80622;-66
2022/02/23 01:21:34;;;;;;;9.07;4.43;;;22.80;38.90;;;;;;6134735;28;81605;-66
2022/02/23 01:24:34;;;;;;;10.50;5.03;;;22.70;38.90;;;;;;6134985;28;81630;-66
2022/02/23 01:27:35;;;;;;;6.90;3.38;;;22.70;38.90;;;;;;6151647;28;84371;-66
2022/02/23 01:30:35;;;;;;;6.68;3.70;;;22.70;39.00;;;;;;6133706;28;80443;-66
2022/02/23 01:33:36;;;;;;;7.72;4.00;;;22.80;39.00;;;;;;6135782;28;80471;-66
2022/02/23 01:36:36;;;;;;;7.75;4.20;;;22.70;38.90;;;;;;6137631;28;80498;-66
2022/02/23 01:39:37;;;;;;;7.25;3.60;;;22.70;39.50;;;;;;6133907;28;80900;-65
2022/02/23 01:42:37;;;;;;;5.55;3.50;;;22.70;38.90;;;;;;6134352;28;80566;-66
2022/02/23 01:45:38;;;;;;;8.18;3.65;;;22.70;39.00;;;;;;6133334;28;80274;-66
2022/02/23 01:48:38;;;;;;;8.43;3.58;;;22.70;39.00;;;;;;6120791;28;80683;-66
2022/02/23 01:51:39;;;;;;;9.23;3.95;;;22.70;39.00;;;;;;6118753;28;80519;-66
2022/02/23 01:54:39;;;;;;;10.60;3.55;;;22.70;39.00;;;;;;6128166;28;81550;-66
2022/02/23 01:57:40;;;;;;;10.95;3.50;;;22.70;38.90;;;;;;6126378;28;80441;-66
2022/02/23 02:00:40;;;;;;;8.43;3.40;;;22.70;38.90;;;;;;6125065;28;81620;-66
2022/02/23 02:03:41;;;;;;;11.98;4.38;;;22.70;38.90;;;;;;6144679;28;80429;-66
2022/02/23 02:06:41;;;;;;;7.72;3.45;;;22.70;38.80;;;;;;6137675;28;80581;-66
2022/02/23 02:09:42;;;;;;;8.48;3.72;;;22.70;38.80;;;;;;6133872;28;80924;-66
2022/02/23 02:12:42;;;;;;;9.32;3.92;;;22.70;38.70;;;;;;6135687;28;80291;-66
2022/02/23 02:15:43;;;;;;;8.20;3.33;;;22.70;38.60;;;;;;6146090;28;81045;-66
2022/02/23 02:18:43;;;;;;;7.00;3.78;;;22.70;38.60;;;;;;6147848;28;80550;-65
2022/02/23 02:21:44;;;;;;;8.05;3.17;;;22.70;38.70;;;;;;6134721;28;82909;-65
2022/02/23 02:24:45;;;;;;;4.47;3.08;;;22.70;38.60;;;;;;6136145;28;80660;-66
2022/02/23 02:27:45;;;;;;;8.57;3.50;;;22.70;38.50;;;;;;6130398;28;80404;-66
2022/02/23 02:30:45;;;;;;;5.95;3.05;;;22.70;38.50;;;;;;6139829;28;82227;-66
2022/02/23 02:33:46;;;;;;;6.22;3.00;;;22.70;38.50;;;;;;6131527;28;81745;-66
2022/02/23 02:36:50;;;;;;;4.80;2.95;;;22.70;38.50;;;;;;6122839;28;80442;-66
2022/02/23 02:39:50;;;;;;;8.23;3.30;;;22.70;38.50;;;;;;6122478;28;82909;-65
2022/02/23 02:42:51;;;;;;;7.28;3.45;;;22.70;38.40;;;;;;6120995;28;84826;-64
2022/02/23 02:45:51;;;;;;;5.95;3.05;;;22.70;38.40;;;;;;6132057;28;80641;-65
2022/02/23 02:48:53;;;;;;;8.30;3.67;;;22.70;38.30;;;;;;6126817;28;80594;-65
2022/02/23 02:51:53;;;;;;;6.93;3.25;;;22.70;38.30;;;;;;6136882;28;81064;-65
2022/02/23 02:54:53;;;;;;;5.32;2.95;;;22.70;38.30;;;;;;6128386;28;80473;-65
2022/02/23 02:57:54;;;;;;;6.85;3.00;;;22.70;38.40;;;;;;6124888;28;80362;-65
2022/02/23 03:00:54;;;;;;;8.38;3.20;;;22.70;38.60;;;;;;6127378;28;80331;-66
2022/02/23 03:03:55;;;;;;;6.10;2.95;;;22.70;38.60;;;;;;6125492;28;80695;-66
2022/02/23 03:06:55;;;;;;;5.45;2.70;;;22.60;38.40;;;;;;6127973;28;81578;-65
2022/02/23 03:09:56;;;;;;;5.47;3.05;;;22.60;38.30;;;;;;6135285;28;80168;-66
2022/02/23 03:12:56;;;;;;;5.88;2.85;;;22.60;38.30;;;;;;6135348;28;80689;-66
2022/02/23 03:15:57;;;;;;;8.85;3.35;;;22.60;38.40;;;;;;6127913;28;80271;-68
2022/02/23 03:18:57;;;;;;;8.25;3.47;;;22.60;38.40;;;;;;6139021;28;80681;-66
2022/02/23 03:21:58;;;;;;;7.68;3.75;;;22.60;38.40;;;;;;6142581;28;80617;-66
2022/02/23 03:24:58;;;;;;;6.32;3.17;;;22.60;38.40;;;;;;6151604;28;80564;-67
2022/02/23 03:27:59;;;;;;;6.28;3.05;;;22.60;38.60;;;;;;6141084;28;80572;-66
2022/02/23 03:30:59;;;;;;;7.93;2.72;;;22.60;38.50;;;;;;6131313;28;80588;-65
2022/02/23 03:34:00;;;;;;;4.75;3.10;;;22.60;38.50;;;;;;6134573;28;80629;-66
2022/02/23 03:37:01;;;;;;;7.15;3.58;;;22.60;38.50;;;;;;6146996;28;81034;-67
2022/02/23 03:40:01;;;;;;;9.00;3.05;;;22.60;38.50;;;;;;6124163;28;81066;-66
2022/02/23 03:43:02;;;;;;;6.70;3.55;;;22.60;38.60;;;;;;6134189;28;80547;-66
2022/02/23 03:46:03;;;;;;;4.85;2.80;;;22.60;38.60;;;;;;6130547;28;81562;-66
2022/02/23 03:49:03;;;;;;;6.30;3.17;;;22.60;38.70;;;;;;6132990;28;80754;-66
2022/02/23 03:52:04;;;;;;;5.63;2.90;;;22.60;38.70;;;;;;6128942;28;80585;-66
2022/02/23 03:55:05;;;;;;;6.07;3.08;;;22.60;38.60;;;;;;6126017;28;80317;-65
2022/02/23 03:58:05;;;;;;;6.22;2.42;;;22.60;38.60;;;;;;6130248;28;82065;-66
2022/02/23 04:01:06;;;;;;;5.57;3.03;;;22.60;38.60;;;;;;6155253;28;80199;-66
2022/02/23 04:04:06;;;;;;;6.22;2.78;;;22.60;38.80;;;;;;6121679;28;80512;-65
2022/02/23 04:07:07;;;;;;;5.07;2.60;;;22.60;38.70;;;;;;6137162;28;80722;-65
2022/02/23 04:10:07;;;;;;;6.28;2.88;;;22.60;38.60;;;;;;6154967;28;80123;-68
2022/02/23 04:13:08;;;;;;;4.50;2.42;;;22.60;38.50;;;;;;6135804;28;81425;-67
2022/02/23 04:16:08;;;;;;;8.73;3.30;;;22.70;38.90;;;;;;6157422;28;80353;-66
2022/02/23 04:19:09;;;;;;;6.38;3.10;;;22.60;38.70;;;;;;6139603;28;80971;-66
2022/02/23 04:22:09;;;;;;;6.32;2.90;;;22.70;39.00;;;;;;6150670;28;80983;-65
2022/02/23 04:25:10;;;;;;;7.50;3.28;;;22.70;37.80;;;;;;6144953;28;80549;-66
2022/02/23 04:28:10;;;;;;;4.20;2.65;;;22.80;37.00;;;;;;6156405;28;86140;-66
2022/02/23 04:31:11;;;;;;;7.68;2.65;;;22.80;36.70;;;;;;6151167;28;80407;-66
2022/02/23 04:34:11;;;;;;;9.23;2.97;;;22.80;36.50;;;;;;6148084;28;84111;-66
2022/02/23 04:37:12;;;;;;;4.32;2.55;;;22.90;36.50;;;;;;6147070;28;80562;-65
2022/02/23 04:40:12;;;;;;;5.85;2.40;;;23.00;37.00;;;;;;6123987;28;80435;-64
2022/02/23 04:43:13;;;;;;;3.92;2.35;;;23.00;37.00;;;;;;6144564;28;80441;-64
2022/02/23 04:46:13;;;;;;;6.90;2.67;;;23.00;37.00;;;;;;6156818;28;80779;-64
2022/02/23 04:49:14;;;;;;;5.28;2.72;;;23.10;37.00;;;;;;6128423;28;80310;-64
2022/02/23 04:52:14;;;;;;;5.20;2.13;;;23.10;37.00;;;;;;6155035;28;81706;-65
2022/02/23 04:55:15;;;;;;;3.58;2.63;;;23.10;36.90;;;;;;6135615;28;80664;-66
2022/02/23 04:58:15;;;;;;;4.10;2.58;;;23.10;36.90;;;;;;6137273;28;80649;-64
2022/02/23 05:01:16;;;;;;;6.35;2.65;;;23.20;37.20;;;;;;6138561;28;80252;-63
2022/02/23 05:04:18;;;;;;;6.45;2.58;;;23.20;37.20;;;;;;6149885;28;80784;-66
2022/02/23 05:07:20;;;;;;;4.88;2.50;;;23.20;37.40;;;;;;6149255;28;80534;-67
2022/02/23 05:10:21;;;;;;;3.75;2.55;;;23.20;37.20;;;;;;6130335;28;80488;-66
2022/02/23 05:13:21;;;;;;;9.57;3.30;;;23.20;37.20;;;;;;6145722;28;80746;-66
2022/02/23 05:16:22;;;;;;;7.03;2.97;;;23.30;37.20;;;;;;6130652;28;81517;-67
2022/02/23 05:19:22;;;;;;;4.53;2.38;;;23.20;37.20;;;;;;6141745;28;81291;-68
2022/02/23 05:22:23;;;;;;;9.68;3.33;;;23.30;37.30;;;;;;6151715;28;80467;-66
2022/02/23 05:25:27;;;;;;;5.72;2.75;;;23.30;37.10;;;;;;6132475;28;81095;-66
2022/02/23 05:28:27;;;;;;;7.60;3.03;;;23.30;37.10;;;;;;6136867;28;82589;-70
2022/02/23 05:31:28;;;;;;;5.25;2.60;;;23.30;37.10;;;;;;6135057;28;81132;-65
2022/02/23 05:34:28;;;;;;;5.28;2.53;;;23.30;37.10;;;;;;6151859;28;80394;-66
2022/02/23 05:37:29;;;;;;;6.38;2.60;;;23.40;37.40;;;;;;6143577;28;81692;-65
2022/02/23 05:40:30;;;;;;;4.43;2.85;;;23.40;37.50;;;;;;6149925;28;80405;-65
2022/02/23 05:43:31;;;;;;;6.45;2.58;;;23.40;37.60;;;;;;6134770;28;80498;-66
2022/02/23 05:46:32;;;;;;;4.07;2.15;;;23.40;37.60;;;;;;6143458;28;80379;-66
2022/02/23 05:49:32;;;;;;;4.43;2.25;;;23.40;37.60;;;;;;6148343;28;80329;-64
2022/02/23 05:52:33;;;;;;;4.47;2.50;;;23.40;37.60;;;;;;6133419;28;82782;-65
2022/02/23 05:55:33;;;;;;;6.30;3.03;;;23.50;37.90;;;;;;6136977;28;81122;-66
2022/02/23 05:58:34;;;;;;;3.05;2.00;;;23.40;38.30;;;;;;6131698;28;80377;-65
2022/02/23 06:01:34;;;;;;;4.03;2.20;;;23.50;39.00;;;;;;6122681;28;80829;-62
2022/02/23 06:04:36;;;;;;;3.78;1.80;;;23.50;39.70;;;;;;6121841;28;80673;-64
2022/02/23 06:07:36;;;;;;;4.60;2.45;;;23.60;39.60;;;;;;6132866;28;80352;-65
2022/02/23 06:10:37;;;;;;;3.63;2.17;;;23.50;39.60;;;;;;6129938;28;80527;-64
2022/02/23 06:13:37;;;;;;;5.35;2.53;;;23.50;39.40;;;;;;6133495;28;80244;-61
2022/02/23 06:16:38;;;;;;;3.63;2.10;;;23.50;39.30;;;;;;6134067;28;81077;-63
2022/02/23 06:19:38;;;;;;;4.75;2.15;;;23.50;39.40;;;;;;6141397;28;80699;-62
2022/02/23 06:22:39;;;;;;;4.00;1.95;;;23.40;40.70;;;;;;6128620;28;81336;-65
2022/02/23 06:25:39;;;;;;;4.75;2.50;;;23.30;42.40;;;;;;6129003;28;81417;-65
2022/02/23 06:28:40;;;;;;;4.90;1.90;;;23.20;43.40;;;;;;6130751;28;81000;-64
2022/02/23 06:31:40;;;;;;;5.57;2.65;;;23.10;44.20;;;;;;6129859;28;80529;-65
2022/02/23 06:34:41;;;;;;;8.27;2.88;;;23.10;45.00;;;;;;6133516;28;80672;-62
2022/02/23 06:37:41;;;;;;;4.38;2.30;;;23.10;45.50;;;;;;6126081;28;81006;-63
2022/02/23 06:40:42;;;;;;;4.82;2.10;;;23.10;45.60;;;;;;6122767;28;80216;-64
2022/02/23 06:43:42;;;;;;;6.03;1.92;;;23.10;45.80;;;;;;6150342;28;82559;-63
2022/02/23 06:46:43;;;;;;;6.85;2.70;;;23.10;46.10;;;;;;6146805;28;80610;-64
2022/02/23 06:49:44;;;;;;;7.68;2.58;;;23.10;46.10;;;;;;6151866;28;81653;-63
2022/02/23 06:52:44;;;;;;;3.45;2.10;;;23.10;46.80;;;;;;6129602;28;80440;-63
2022/02/23 06:55:45;;;;;;;3.35;1.83;;;23.10;47.20;;;;;;6145279;28;81564;-63
2022/02/23 06:58:46;;;;;;;7.75;2.20;;;23.10;47.70;;;;;;6121196;28;86870;-63
2022/02/23 07:01:47;;;;;;;2.05;1.83;;;23.10;47.80;;;;;;6135679;28;80549;-62
2022/02/23 07:04:47;;;;;;;3.67;2.55;;;23.20;48.10;;;;;;6132629;28;81657;-63
2022/02/23 07:07:48;;;;;;;4.75;2.33;;;23.20;48.00;;;;;;6142210;28;80634;-62
2022/02/23 07:10:48;;;;;;;4.43;2.13;;;23.20;48.10;;;;;;6132270;28;81728;-63
2022/02/23 07:13:49;;;;;;;4.00;2.40;;;23.30;48.30;;;;;;6128051;28;82636;-62
2022/02/23 07:16:50;;;;;;;5.65;2.55;;;23.20;48.30;;;;;;6137125;28;81349;-63
2022/02/23 07:19:50;;;;;;;5.25;2.22;;;23.30;48.30;;;;;;6148795;28;80599;-63
2022/02/23 07:22:51;;;;;;;3.45;2.17;;;23.20;48.40;;;;;;6133227;28;81377;-64
2022/02/23 07:25:51;;;;;;;6.15;2.00;;;23.20;48.50;;;;;;6140107;28;80768;-64
2022/02/23 07:28:52;;;;;;;6.57;2.40;;;23.20;48.50;;;;;;6131245;28;80546;-63
2022/02/23 07:31:52;;;;;;;7.05;1.92;;;23.20;48.50;;;;;;6137990;28;80375;-63
2022/02/23 07:34:53;;;;;;;6.68;2.58;;;23.20;48.60;;;;;;6147886;28;80737;-63
2022/02/23 07:37:55;;;;;;;3.88;2.20;;;23.20;48.60;;;;;;6129988;28;80366;-63
2022/02/23 07:40:55;;;;;;;8.00;3.40;;;23.20;48.80;;;;;;6125261;28;81263;-62
2022/02/23 07:43:56;;;;;;;4.93;2.22;;;23.20;48.70;;;;;;6127204;28;80745;-63
2022/02/23 07:46:56;;;;;;;9.98;3.00;;;23.20;48.70;;;;;;6126193;28;80432;-62
2022/02/23 07:49:57;;;;;;;7.45;2.42;;;23.20;48.90;;;;;;6129204;28;82683;-64
2022/02/23 07:52:57;;;;;;;6.05;2.38;;;23.20;49.00;;;;;;6131319;28;80820;-63
2022/02/23 07:55:58;;;;;;;4.60;2.00;;;23.20;48.90;;;;;;6124552;28;80911;-63
2022/02/23 07:58:58;;;;;;;4.32;2.47;;;23.20;48.90;;;;;;6127317;28;81461;-60
2022/02/23 08:01:59;;;;;;;6.93;2.70;;;23.20;48.90;;;;;;6134414;28;80467;-63
2022/02/23 08:05:00;;;;;;;4.95;2.30;;;23.20;48.90;;;;;;6129870;28;82243;-61
2022/02/23 08:08:01;;;;;;;7.28;2.85;;;23.20;49.00;;;;;;6130097;28;80737;-63
2022/02/23 08:11:01;;;;;;;3.42;2.60;;;23.20;48.90;;;;;;6129358;28;81576;-64
2022/02/23 08:14:03;;;;;;;5.18;2.55;;;23.20;48.70;;;;;;6124900;28;80250;-62
2022/02/23 08:20:23;;;;;;;6.55;3.08;;;23.20;48.80;;;;;;6128385;28;81217;-63
2022/02/23 08:23:24;;;;;;;4.90;2.92;;;23.20;48.80;;;;;;6132331;28;80495;-63
2022/02/23 08:26:25;;;;;;;5.72;2.97;;;23.20;48.90;;;;;;6127384;28;83339;-62
2022/02/23 08:29:26;;;;;;;5.63;2.38;;;23.20;48.70;;;;;;6127782;28;80077;-64
2022/02/23 08:32:26;;;;;;;6.55;2.47;;;23.20;48.70;;;;;;6124994;28;81097;-62
2022/02/23 08:35:27;;;;;;;6.70;2.65;;;23.20;48.70;;;;;;6131417;28;80278;-62
2022/02/23 08:38:27;;;;;;;7.13;3.17;;;23.20;48.80;;;;;;6134588;28;80437;-61
2022/02/23 08:41:28;;;;;;;10.13;2.83;;;23.30;48.70;;;;;;6132053;28;80752;-61
2022/02/23 08:44:28;;;;;;;4.85;2.85;;;23.30;48.70;;;;;;6136838;28;81213;-61
2022/02/23 08:47:29;;;;;;;8.32;2.88;;;23.40;48.60;;;;;;6130541;28;80613;-62
2022/02/23 08:50:30;;;;;;;5.13;2.28;;;23.40;48.60;;;;;;6130187;28;80821;-59
2022/02/23 08:53:30;;;;;;;6.30;3.28;;;23.50;48.60;;;;;;6138078;28;87850;-59
2022/02/23 08:56:31;;;;;;;4.78;2.58;;;23.50;48.60;;;;;;6137711;28;80268;-59
2022/02/23 08:59:31;;;;;;;11.02;3.85;;;23.50;48.40;;;;;;6152047;28;80565;-59
2022/02/23 09:02:32;;;;;;;6.32;2.80;;;23.60;48.50;;;;;;6121442;28;80397;-62
2022/02/23 09:05:33;;;;;;;9.43;2.58;;;23.70;48.70;;;;;;6134937;28;80813;-59
2022/02/23 09:08:34;;;;;;;7.22;2.38;;;23.80;48.60;;;;;;6129323;28;80701;-60
2022/02/23 09:11:34;;;;;;;11.65;3.67;;;23.90;49.00;;;;;;6153897;28;80978;-59
2022/02/23 09:14:35;;;;;;;6.65;3.00;;;24.00;48.90;;;;;;6146089;28;80275;-60
2022/02/23 09:17:35;;;;;;;11.55;3.92;;;24.10;49.20;;;;;;6130467;28;82423;-61
2022/02/23 09:20:36;;;;;;;9.05;3.00;;;24.10;49.60;;;;;;6137985;28;80756;-61
2022/02/23 09:23:36;;;;;;;8.35;3.13;;;24.10;49.70;;;;;;6123560;28;80341;-59
2022/02/23 09:26:37;;;;;;;8.90;3.33;;;24.00;49.90;;;;;;6122697;28;81757;-60
2022/02/23 09:29:39;;;;;;;6.55;3.05;;;24.00;49.90;;;;;;6131549;28;80285;-59
2022/02/23 09:32:40;;;;;;;7.90;2.70;;;24.00;49.90;;;;;;6136039;28;81477;-59
2022/02/23 09:35:41;;;;;;;7.13;3.28;;;24.00;50.10;;;;;;6136838;28;80084;-60
2022/02/23 09:38:42;;;;;;;10.13;3.35;;;24.00;50.00;;;;;;6134434;28;80588;-60
2022/02/23 09:41:42;;;;;;;9.63;3.58;;;24.00;50.10;;;;;;6138494;28;81656;-59
2022/02/23 09:44:43;;;;;;;5.50;2.60;;;24.00;50.10;;;;;;6126013;28;81636;-60
2022/02/23 09:47:43;;;;;;;10.57;3.33;;;24.10;50.00;;;;;;6127209;28;81360;-60
2022/02/23 09:50:44;;;;;;;9.13;3.42;;;24.10;50.00;;;;;;6123522;28;81400;-60
2022/02/23 09:53:45;;;;;;;11.30;3.45;;;24.10;50.00;;;;;;6120403;28;82307;-60
2022/02/23 09:56:46;;;;;;;9.45;3.15;;;24.00;49.90;;;;;;6118650;28;80358;-61
2022/02/23 09:59:46;;;;;;;7.75;2.72;;;24.00;50.10;;;;;;6117400;28;82929;-60
2022/02/23 10:02:47;;;;;;;11.80;3.58;;;24.10;49.20;;;;;;6128578;28;81514;-60
2022/02/23 10:05:48;;;;;;;9.02;3.85;;;24.30;48.10;;;;;;6145734;28;81170;-60
2022/02/23 10:08:48;;;;;;;6.35;3.00;;;24.50;47.30;;;;;;6135682;28;80797;-59
2022/02/23 10:11:49;;;;;;;7.90;3.17;;;24.50;46.50;;;;;;6141012;28;80981;-63
2022/02/23 10:14:52;;;;;;;8.95;3.15;;;24.60;46.20;;;;;;6143004;28;80767;-62
2022/02/23 10:17:52;;;;;;;7.70;2.90;;;24.60;45.50;;;;;;6114266;28;80427;-61
2022/02/23 10:20:53;;;;;;;5.60;3.22;;;24.60;45.20;;;;;;6132582;28;81096;-61
2022/02/23 10:23:55;;;;;;;8.13;2.83;;;24.60;45.10;;;;;;6132338;28;80517;-61
2022/02/23 10:26:56;;;;;;;6.68;2.90;;;24.60;45.10;;;;;;6127826;28;80448;-63
2022/02/23 10:29:56;;;;;;;6.63;3.20;;;24.50;44.80;;;;;;6123662;28;81802;-62
2022/02/23 10:32:57;;;;;;;6.28;2.72;;;24.50;44.90;;;;;;6129472;28;80301;-62
2022/02/23 10:35:58;;;;;;;12.43;3.70;;;24.50;44.60;;;;;;6123716;28;81152;-61
2022/02/23 10:39:01;;;;;;;15.65;4.45;;;24.60;44.30;;;;;;6123358;28;80528;-61
2022/02/23 10:42:02;;;;;;;17.65;5.32;;;24.60;44.20;;;;;;6126241;28;80793;-61
2022/02/23 10:45:03;;;;;;;25.00;7.03;;;24.70;44.30;;;;;;6128729;28;80465;-61
2022/02/23 10:48:03;;;;;;;20.42;6.05;;;24.80;44.70;;;;;;6135380;28;80807;-61
2022/02/23 10:51:04;;;;;;;18.90;6.63;;;24.80;44.60;;;;;;6117628;28;80909;-62
2022/02/23 10:54:04;;;;;;;19.92;5.70;;;24.80;44.40;;;;;;6143506;28;80799;-62
2022/02/23 10:57:05;;;;;;;23.38;6.38;;;24.90;44.00;;;;;;6130821;28;80989;-62
2022/02/23 11:00:08;;;;;;;24.38;5.90;;;25.00;44.10;;;;;;6127854;28;81043;-62
2022/02/23 11:03:09;;;;;;;20.48;5.07;;;25.10;43.90;;;;;;6134974;28;80675;-66
2022/02/23 11:06:09;;;;;;;16.58;5.75;;;25.10;44.10;;;;;;6133983;28;80618;-60
2022/02/23 11:09:10;;;;;;;31.50;6.22;;;25.10;43.90;;;;;;6129745;28;81467;-59
2022/02/23 11:12:10;;;;;;;13.77;4.88;;;25.10;43.80;;;;;;6133543;28;80610;-62
2022/02/23 11:15:11;;;;;;;15.30;5.18;;;25.10;43.40;;;;;;6131930;28;81418;-59
2022/02/23 11:18:11;;;;;;;15.10;5.70;;;25.10;43.60;;;;;;6139792;28;81119;-61
2022/02/23 11:21:12;;;;;;;18.73;5.95;;;25.10;43.20;;;;;;6131796;28;80481;-60
2022/02/23 11:24:13;;;;;;;13.45;4.93;;;25.20;43.60;;;;;;6143216;28;80334;-59
2022/02/23 11:27:14;;;;;;;19.73;5.38;;;25.20;43.30;;;;;;6143719;28;83080;-61
2022/02/23 11:30:14;;;;;;;16.27;5.28;;;25.20;43.20;;;;;;6152173;28;80828;-62
2022/02/23 11:33:15;;;;;;;12.20;4.88;;;25.10;43.40;;;;;;6150866;28;80519;-62
2022/02/23 11:36:15;;;;;;;14.10;5.03;;;25.10;43.30;;;;;;6153825;28;80419;-62
2022/02/23 11:39:16;;;;;;;16.95;5.13;;;25.10;43.60;;;;;;6136658;28;80834;-59
2022/02/23 11:42:16;;;;;;;14.73;4.68;;;25.10;43.70;;;;;;6122523;28;81557;-61
2022/02/23 11:45:17;;;;;;;15.45;5.13;;;25.10;43.70;;;;;;6126447;28;81951;-62
2022/02/23 11:48:17;;;;;;;11.27;4.05;;;25.10;43.30;;;;;;6125227;28;80339;-61
2022/02/23 11:51:17;;;;;;;19.92;4.60;;;25.00;43.20;;;;;;6118427;28;80586;-62
2022/02/23 11:54:18;;;;;;;12.38;4.28;;;25.00;43.00;;;;;;6133142;28;81077;-63
2022/02/23 11:57:19;;;;;;;15.02;4.47;;;24.90;42.90;;;;;;6126787;28;82727;-61
2022/02/23 12:00:19;;;;;;;17.80;4.60;;;24.90;42.90;;;;;;6125440;28;80948;-62
2022/02/23 12:03:20;;;;;;;8.75;3.60;;;25.00;42.60;;;;;;6130877;28;81477;-63
2022/02/23 12:06:21;;;;;;;10.13;4.05;;;25.10;42.60;;;;;;6130454;28;80739;-63
2022/02/23 12:09:22;;;;;;;15.73;3.80;;;25.20;42.40;;;;;;6133364;28;80344;-61
2022/02/23 12:12:22;;;;;;;12.50;4.18;;;25.30;43.40;;;;;;6132646;28;81401;-61
2022/02/23 12:15:23;;;;;;;12.73;3.65;;;25.40;43.50;;;;;;6134961;28;83882;-60
2022/02/23 12:18:23;;;;;;;10.27;3.75;;;25.50;43.20;;;;;;6129316;28;80722;-62
2022/02/23 12:21:24;;;;;;;9.90;3.67;;;25.60;43.20;;;;;;6142242;28;80077;-62
2022/02/23 12:24:24;;;;;;;15.07;3.63;;;25.50;43.10;;;;;;6139021;28;81868;-62
2022/02/23 12:27:25;;;;;;;12.35;3.72;;;25.50;43.40;;;;;;6138635;28;81342;-61
2022/02/23 12:30:25;;;;;;;9.02;3.10;;;25.40;43.70;;;;;;6131979;28;80542;-61
2022/02/23 12:33:26;;;;;;;6.05;3.22;;;25.20;45.10;;;;;;6139663;28;80552;-61
2022/02/23 12:36:26;;;;;;;5.03;2.83;;;25.20;44.90;;;;;;6122018;28;83514;-61
2022/02/23 12:39:27;;;;;;;9.15;3.58;;;25.00;44.90;;;;;;6132217;28;80752;-61
2022/02/23 12:42:27;;;;;;;10.75;3.30;;;25.10;44.50;;;;;;6137306;28;80433;-61
2022/02/23 12:45:28;;;;;;;18.60;3.63;;;25.30;44.30;;;;;;6141258;28;81167;-61
2022/02/23 12:48:33;;;;;;;9.93;3.13;;;25.40;43.70;;;;;;6135547;28;81836;-61
2022/02/23 12:51:33;;;;;;;7.17;2.83;;;25.50;43.40;;;;;;6137921;28;80600;-60
2022/02/23 12:54:34;;;;;;;7.25;2.97;;;25.60;42.70;;;;;;6127239;28;81405;-59
2022/02/23 12:57:34;;;;;;;7.85;3.03;;;25.60;42.50;;;;;;6131125;28;80461;-61
2022/02/23 13:00:35;;;;;;;6.60;2.80;;;25.60;42.50;;;;;;6129561;28;80795;-61
2022/02/23 13:03:35;;;;;;;6.90;3.00;;;25.70;42.80;;;;;;6121811;28;80751;-61
2022/02/23 13:06:36;;;;;;;7.68;2.97;;;25.70;42.80;;;;;;6136474;28;80232;-61
2022/02/23 13:09:36;;;;;;;6.28;2.83;;;25.80;42.70;;;;;;6123134;28;80641;-60
2022/02/23 13:12:37;;;;;;;6.63;2.63;;;25.90;42.40;;;;;;6135615;28;80710;-61
2022/02/23 13:15:38;;;;;;;11.38;2.47;;;25.90;42.50;;;;;;6135361;28;81942;-61
2022/02/23 13:18:40;;;;;;;6.53;3.17;;;25.90;42.40;;;;;;6139005;28;80897;-59
2022/02/23 13:21:41;;;;;;;4.75;2.42;;;25.90;42.10;;;;;;6142623;28;81279;-62
2022/02/23 13:24:41;;;;;;;9.18;2.85;;;25.90;42.00;;;;;;6125424;28;82196;-62
2022/02/23 13:27:42;;;;;;;4.60;2.50;;;26.00;42.20;;;;;;6121106;28;81892;-61
2022/02/23 13:30:43;;;;;;;6.22;2.97;;;26.00;42.30;;;;;;6125567;28;80400;-62
2022/02/23 13:33:43;;;;;;;5.35;2.78;;;26.00;42.10;;;;;;6131463;28;80704;-63
2022/02/23 13:36:44;;;;;;;11.05;3.20;;;26.10;42.00;;;;;;6130510;28;80594;-60
2022/02/23 13:39:44;;;;;;;9.20;2.70;;;26.10;41.90;;;;;;6121342;28;80703;-61
2022/02/23 13:42:45;;;;;;;6.25;2.97;;;26.10;41.40;;;;;;6139892;28;80562;-61
2022/02/23 13:45:45;;;;;;;9.48;3.08;;;26.00;41.10;;;;;;6155596;28;80520;-62
2022/02/23 13:48:46;;;;;;;8.55;3.05;;;25.90;40.90;;;;;;6130668;28;80806;-63
2022/02/23 13:51:47;;;;;;;7.43;3.35;;;25.90;41.50;;;;;;6136531;28;80428;-61
2022/02/23 13:54:47;;;;;;;6.13;3.13;;;25.70;41.70;;;;;;6137930;28;81514;-60
2022/02/23 13:57:48;;;;;;;9.05;3.45;;;25.70;41.10;;;;;;6143094;28;80532;-61
2022/02/23 14:00:49;;;;;;;7.82;3.08;;;25.70;41.00;;;;;;6134709;28;80197;-62
2022/02/23 14:03:49;;;;;;;7.18;3.67;;;25.80;41.30;;;;;;6132635;28;80866;-61
2022/02/23 14:06:50;;;;;;;6.35;3.08;;;25.70;41.50;;;;;;6132191;28;81130;-61
2022/02/23 14:09:50;;;;;;;8.43;3.65;;;25.70;41.60;;;;;;6137013;28;81599;-62
2022/02/23 14:12:51;;;;;;;9.10;3.10;;;25.60;41.60;;;;;;6131899;28;85995;-63
2022/02/23 14:15:52;;;;;;;7.15;3.15;;;25.60;41.30;;;;;;6136483;28;80508;-63
2022/02/23 14:18:52;;;;;;;6.88;2.38;;;25.70;41.40;;;;;;6134012;28;82001;-63
2022/02/23 14:21:53;;;;;;;12.23;3.35;;;25.60;41.30;;;;;;6130928;28;80971;-62
2022/02/23 14:24:53;;;;;;;6.38;3.38;;;25.70;41.20;;;;;;6135057;28;80510;-63
2022/02/23 14:27:56;;;;;;;6.45;2.88;;;25.60;41.30;;;;;;6137408;28;80702;-63
2022/02/23 14:30:57;;;;;;;6.13;3.13;;;25.60;41.20;;;;;;6129631;28;81661;-64
2022/02/23 14:33:58;;;;;;;6.45;3.35;;;25.60;41.10;;;;;;6134389;28;82320;-62
2022/02/23 14:36:58;;;;;;;7.95;2.95;;;25.50;41.20;;;;;;6124926;28;81539;-62
2022/02/23 14:40:00;;;;;;;6.82;2.90;;;25.50;41.40;;;;;;6125213;28;80611;-62
2022/02/23 14:43:01;;;;;;;7.75;2.78;;;25.40;41.40;;;;;;6129832;28;81690;-62
2022/02/23 14:46:01;;;;;;;6.70;3.17;;;25.40;41.50;;;;;;6135126;28;80966;-62
2022/02/23 14:49:02;;;;;;;5.57;3.05;;;25.30;41.40;;;;;;6133532;28;80354;-61
2022/02/23 14:52:02;;;;;;;7.55;3.13;;;25.30;41.30;;;;;;6132566;28;81595;-63
2022/02/23 14:55:03;;;;;;;5.18;2.90;;;25.30;41.20;;;;;;6135303;28;82072;-62
2022/02/23 14:58:03;;;;;;;7.85;3.05;;;25.30;41.10;;;;;;6134174;28;81522;-62
2022/02/23 15:01:04;;;;;;;4.70;2.92;;;25.70;40.80;;;;;;6132477;28;80340;-62
2022/02/23 15:04:05;;;;;;;5.22;2.80;;;26.20;39.50;;;;;;6132562;28;80993;-63
2022/02/23 15:07:05;;;;;;;4.13;3.00;;;26.50;39.10;;;;;;6132922;28;81417;-62
2022/02/23 15:10:06;;;;;;;6.32;3.15;;;26.50;39.30;;;;;;6136213;28;81441;-62
2022/02/23 15:13:07;;;;;;;6.07;3.35;;;26.50;39.30;;;;;;6131695;28;81725;-62
2022/02/23 15:16:07;;;;;;;5.15;2.88;;;26.30;39.40;;;;;;6124885;28;80958;-61
2022/02/23 15:19:08;;;;;;;7.70;3.08;;;26.10;39.60;;;;;;6126779;28;82144;-61
2022/02/23 15:22:08;;;;;;;6.75;2.80;;;26.00;39.80;;;;;;6134097;28;81277;-60
2022/02/23 15:25:09;;;;;;;6.15;3.10;;;25.90;39.90;;;;;;6127022;28;80988;-61
2022/02/23 15:28:09;;;;;;;7.53;3.22;;;25.80;39.80;;;;;;6132647;28;80702;-61
2022/02/23 15:31:13;;;;;;;4.30;2.33;;;25.90;39.90;;;;;;6135281;28;80570;-61
2022/02/23 15:34:13;;;;;;;6.10;3.33;;;25.80;40.40;;;;;;6134605;28;80688;-60
2022/02/23 15:37:14;;;;;;;6.75;2.65;;;25.70;40.30;;;;;;6119076;28;81402;-60
2022/02/23 15:40:14;;;;;;;8.25;2.70;;;25.50;40.70;;;;;;6125282;28;80880;-60